CTY4 weather

Olds / North 40 Ranch Airstrip
Alberta, Canada

Public forecast

Using degrees Celsius for public forecast. Weather courtesy of forecast.io.

METAR (pilot weather report)

Closest report is Red Deer Regional Airport, 19.4 nm (35.8 km) NNE. Retrieved 2019/09/23 14:00 UTC (15 minutes ago):

CYQF 231400Z 26007KT 15SM FEW100 BKN250 07/06 A2977 RMK AC2CI3 SLP094

TAF (pilot weather forecast)

Closest forecast is Red Deer Regional Airport, 19.4 nm (35.8 km) NNE. Retrieved 2019/09/23 12:42 UTC (2 hours ago):

TAF CYQF 231139Z 2312/2324 VRB03KT P6SM BKN100 BECMG 2312/2314 FEW100 FM232000 25010KT P6SM BKN070 RMK NXT FCST BY 231800Z